createdAt,value
2017-08-25T00:01:05.465Z,54.53
2017-08-25T00:03:34.579Z,50.80
2017-08-25T00:06:02.907Z,57.40
2017-08-25T00:08:31.245Z,56.97
2017-08-25T00:10:59.942Z,51.53
2017-08-25T00:13:28.309Z,52.10
2017-08-25T00:15:56.608Z,53.60
2017-08-25T00:18:25.237Z,53.47
2017-08-25T00:20:53.563Z,55.83
2017-08-25T00:23:22.836Z,53.67
2017-08-25T00:25:52.873Z,55.80
2017-08-25T00:28:22.014Z,55.40
2017-08-25T00:30:50.359Z,53.83
2017-08-25T00:33:20.111Z,52.70
2017-08-25T00:35:48.472Z,49.97
2017-08-25T00:38:16.822Z,53.80
2017-08-25T00:40:45.433Z,53.33
2017-08-25T00:43:13.787Z,55.07
2017-08-25T00:45:42.099Z,56.40
2017-08-25T00:48:10.747Z,54.13
2017-08-25T00:50:39.824Z,53.10
2017-08-25T00:53:08.177Z,52.60
2017-08-25T00:55:36.812Z,55.83
2017-08-25T00:58:05.131Z,57.57
2017-08-25T01:00:33.786Z,54.53
2017-08-25T01:03:02.427Z,53.97
2017-08-25T01:05:30.726Z,54.97
2017-08-25T01:07:58.998Z,53.97
2017-08-25T01:10:28.442Z,56.30
2017-08-25T01:19:44.793Z,53.47
2017-08-25T01:22:13.095Z,56.43
2017-08-25T01:24:41.389Z,59.43
2017-08-25T01:27:10.328Z,57.37
2017-08-25T01:29:38.640Z,56.50
2017-08-25T01:32:06.953Z,57.30
2017-08-25T01:34:36.446Z,55.83
2017-08-25T01:37:06.347Z,52.90
2017-08-25T01:39:34.656Z,54.33
2017-08-25T01:42:07.148Z,55.30
2017-08-25T01:44:36.232Z,59.03
2017-08-25T01:47:04.956Z,55.07
2017-08-25T01:49:34.225Z,55.30
2017-08-25T01:52:05.200Z,54.97
2017-08-25T01:54:34.016Z,60.10
2017-08-25T01:57:02.706Z,51.07
2017-08-25T01:59:31.767Z,50.60
2017-08-25T02:02:00.095Z,49.07
2017-08-25T02:04:28.780Z,51.87
2017-08-25T02:06:57.214Z,48.97
2017-08-25T02:09:25.908Z,48.77
2017-08-25T02:11:54.565Z,48.47
2017-08-25T02:14:22.922Z,47.40
2017-08-25T02:16:52.094Z,45.10
2017-08-25T02:19:23.102Z,45.60
2017-08-25T02:21:52.614Z,43.20
2017-08-25T02:24:21.971Z,42.60
2017-08-25T02:26:50.335Z,45.23
2017-08-25T02:29:18.677Z,42.33
2017-08-25T02:31:48.568Z,42.77
2017-08-25T02:34:16.920Z,43.40
2017-08-25T02:36:45.322Z,41.70
2017-08-25T02:39:14.384Z,44.57
2017-08-25T02:41:42.705Z,45.90
2017-08-25T02:44:11.038Z,46.03
2017-08-25T02:46:40.295Z,45.27
2017-08-25T02:49:08.581Z,42.77
2017-08-25T02:51:36.923Z,46.47
2017-08-25T02:54:05.540Z,44.73
2017-08-25T02:56:33.871Z,43.77
2017-08-25T02:59:02.218Z,42.73
2017-08-25T03:01:31.286Z,41.43
2017-08-25T03:03:59.574Z,45.37
2017-08-25T03:06:28.638Z,47.60
2017-08-25T03:08:57.287Z,46.83
2017-08-25T03:11:26.432Z,46.33
2017-08-25T03:13:54.746Z,41.63
2017-08-25T03:16:23.499Z,42.57
2017-08-25T03:18:51.818Z,41.70
2017-08-25T03:21:20.108Z,41.93
2017-08-25T03:23:48.811Z,40.17
2017-08-25T03:26:17.169Z,36.20
2017-08-25T03:28:45.518Z,39.70
2017-08-25T03:31:15.620Z,39.90
2017-08-25T03:33:43.974Z,36.67
2017-08-25T03:36:12.320Z,38.73
2017-08-25T03:38:41.314Z,38.27
2017-08-25T03:41:09.671Z,40.33
2017-08-25T03:43:37.966Z,40.23
2017-08-25T03:46:06.533Z,42.40
2017-08-25T03:48:34.838Z,41.73
2017-08-25T03:51:03.315Z,42.67
2017-08-25T03:53:31.885Z,39.30
2017-08-25T03:56:00.596Z,43.00
2017-08-25T03:58:29.491Z,41.60
2017-08-25T04:00:58.138Z,39.73
2017-08-25T04:03:26.413Z,42.70
2017-08-25T04:05:55.425Z,43.40
2017-08-25T04:08:24.081Z,43.50
2017-08-25T04:10:53.689Z,43.03
2017-08-25T04:13:22.849Z,39.90
2017-08-25T04:15:51.465Z,40.10
2017-08-25T04:18:19.804Z,39.83
2017-08-25T04:20:48.508Z,37.13
2017-08-25T04:23:18.495Z,37.70
2017-08-25T04:25:48.411Z,36.37
2017-08-25T04:28:17.968Z,34.70
2017-08-25T04:30:47.799Z,33.77
2017-08-25T04:33:18.382Z,32.80
2017-08-25T04:35:48.198Z,35.90
2017-08-25T04:38:18.487Z,33.03
2017-08-25T04:40:48.030Z,34.30
2017-08-25T04:43:17.838Z,30.50
2017-08-25T04:45:48.357Z,32.37
2017-08-25T04:48:18.211Z,32.90
2017-08-25T04:50:48.428Z,33.40
2017-08-25T04:53:18.006Z,33.00
2017-08-25T04:55:48.256Z,31.10
2017-08-25T04:58:17.769Z,30.73
2017-08-25T05:00:47.350Z,30.27
2017-08-25T05:03:17.317Z,30.90
2017-08-25T05:05:45.500Z,30.43
2017-08-25T05:08:15.195Z,32.37
2017-08-25T05:10:43.687Z,29.80
2017-08-25T05:13:12.060Z,30.93
2017-08-25T05:15:40.387Z,28.10
2017-08-25T05:18:08.948Z,26.90
2017-08-25T05:20:37.253Z,25.80
2017-08-25T05:23:06.420Z,24.67
2017-08-25T05:25:35.714Z,24.60
2017-08-25T05:28:04.010Z,24.37
2017-08-25T05:30:32.357Z,22.60
2017-08-25T05:33:03.283Z,22.57
2017-08-25T05:35:31.603Z,21.47
2017-08-25T05:37:59.932Z,20.50
2017-08-25T05:40:28.601Z,21.30
2017-08-25T05:42:56.942Z,19.70
2017-08-25T05:45:25.365Z,23.63
2017-08-25T05:47:54.046Z,21.77
2017-08-25T05:50:22.629Z,20.00
2017-08-25T05:52:50.923Z,21.17
2017-08-25T05:55:19.499Z,21.23
2017-08-25T05:57:48.462Z,22.00
2017-08-25T06:00:18.548Z,20.37
2017-08-25T06:02:48.462Z,23.00
2017-08-25T06:05:17.414Z,23.20
2017-08-25T06:07:45.696Z,21.93
2017-08-25T06:10:14.280Z,23.87
2017-08-25T06:12:42.614Z,21.63
2017-08-25T06:15:12.200Z,25.77
2017-08-25T06:17:40.892Z,23.80
2017-08-25T06:20:09.188Z,23.37
2017-08-25T06:22:38.157Z,23.57
2017-08-25T06:25:06.726Z,23.53
2017-08-25T06:27:35.022Z,21.57
2017-08-25T06:30:03.341Z,21.80
2017-08-25T06:32:32.019Z,21.90
2017-08-25T06:35:00.323Z,23.33
2017-08-25T06:37:28.653Z,20.67
2017-08-25T06:39:57.262Z,22.00
2017-08-25T06:42:25.579Z,24.13
2017-08-25T06:44:53.871Z,23.33
2017-08-25T06:47:22.502Z,23.80
2017-08-25T06:49:50.808Z,21.03
2017-08-25T06:52:19.090Z,23.07
2017-08-25T06:54:47.827Z,24.90
2017-08-25T06:57:16.134Z,22.80
2017-08-25T06:59:44.537Z,23.87
2017-08-25T07:02:13.238Z,23.03
2017-08-25T07:04:41.574Z,21.07
2017-08-25T07:07:11.209Z,19.93
2017-08-25T07:09:42.448Z,21.67
2017-08-25T07:12:12.001Z,18.57
2017-08-25T07:14:40.190Z,20.37
2017-08-25T07:17:10.174Z,17.50
2017-08-25T07:19:39.737Z,18.87
2017-08-25T07:22:09.275Z,15.13
2017-08-25T07:24:39.124Z,13.37
2017-08-25T07:27:08.654Z,13.20
2017-08-25T07:29:39.061Z,11.30
2017-08-25T07:32:08.892Z,13.17
2017-08-25T07:34:39.228Z,10.83
2017-08-25T07:37:10.191Z,12.73
2017-08-25T07:39:39.692Z,11.80
2017-08-25T07:42:09.588Z,11.10
2017-08-25T07:44:39.104Z,8.63
2017-08-25T07:47:10.589Z,8.40
2017-08-25T07:49:40.132Z,9.67
2017-08-25T07:52:09.650Z,9.27
2017-08-25T07:54:39.860Z,7.17
2017-08-25T07:57:08.016Z,8.63
2017-08-25T07:59:36.313Z,9.17
2017-08-25T08:02:04.979Z,7.83
2017-08-25T08:04:33.579Z,7.70
2017-08-25T08:07:02.638Z,7.50
2017-08-25T08:09:31.295Z,7.80
2017-08-25T08:12:00.011Z,8.40
2017-08-25T08:14:28.318Z,8.60
2017-08-25T08:16:56.894Z,8.07
2017-08-25T08:19:25.174Z,7.70
2017-08-25T08:21:53.467Z,7.53
2017-08-25T08:24:22.397Z,7.77
2017-08-25T08:26:51.704Z,6.67
2017-08-25T08:29:20.013Z,7.90
2017-08-25T08:31:48.645Z,7.67
2017-08-25T08:34:18.342Z,6.93
2017-08-25T08:36:47.861Z,7.93
2017-08-25T08:39:17.767Z,7.37
2017-08-25T08:41:47.270Z,7.03
2017-08-25T08:44:16.807Z,8.30
2017-08-25T08:46:45.431Z,8.67
2017-08-25T08:49:13.842Z,9.70
2017-08-25T08:51:42.288Z,7.90
2017-08-25T08:54:11.388Z,9.50
2017-08-25T08:56:41.155Z,9.13
2017-08-25T08:59:09.498Z,7.53
2017-08-25T09:01:38.166Z,16.87
2017-08-25T09:04:08.206Z,14.07
2017-08-25T09:06:36.833Z,7.60
2017-08-25T09:09:05.422Z,7.20
2017-08-25T09:11:33.735Z,7.07
2017-08-25T09:14:02.058Z,5.10
2017-08-25T09:16:30.673Z,6.03
2017-08-25T09:18:59.732Z,5.97
2017-08-25T09:21:28.048Z,5.57
2017-08-25T09:23:56.760Z,6.10
2017-08-25T09:26:25.118Z,6.43
2017-08-25T09:28:53.722Z,5.60
2017-08-25T09:31:22.815Z,6.07
2017-08-25T09:33:51.499Z,6.90
2017-08-25T09:36:19.822Z,6.72
2017-08-25T09:38:49.834Z,8.50
2017-08-25T09:41:18.122Z,8.87
2017-08-25T09:43:47.059Z,8.10
2017-08-25T09:46:16.700Z,7.97
2017-08-25T09:48:44.998Z,7.97
2017-08-25T09:51:13.393Z,9.87
2017-08-25T09:53:42.840Z,9.20
2017-08-25T09:56:12.192Z,9.03
2017-08-25T09:58:40.578Z,8.57
2017-08-25T10:01:09.258Z,8.57
2017-08-25T10:03:37.559Z,8.60
2017-08-25T10:06:05.901Z,7.93
2017-08-25T10:08:34.552Z,8.30
2017-08-25T10:11:03.639Z,9.47
2017-08-25T10:13:32.034Z,7.80
2017-08-25T10:16:01.066Z,8.40
2017-08-25T10:18:29.395Z,8.40
2017-08-25T10:20:58.477Z,8.93
2017-08-25T10:23:27.329Z,8.77
2017-08-25T10:25:56.469Z,9.70
2017-08-25T10:28:25.055Z,9.17
2017-08-25T10:30:53.734Z,8.93
2017-08-25T10:33:35.326Z,8.80
2017-08-25T10:36:15.851Z,8.97
2017-08-25T10:42:02.433Z,9.43
2017-08-25T10:44:43.866Z,9.07
2017-08-25T10:47:13.680Z,7.87
2017-08-25T10:49:42.283Z,7.43
2017-08-25T10:52:11.461Z,7.53
2017-08-25T10:54:40.388Z,7.50
2017-08-25T10:57:08.774Z,6.00
2017-08-25T10:59:39.671Z,8.07
2017-08-25T11:02:08.314Z,6.57
2017-08-25T11:04:39.265Z,5.83
2017-08-25T11:07:09.270Z,6.03
2017-08-25T11:09:39.643Z,5.90
2017-08-25T11:12:11.122Z,4.30
2017-08-25T11:14:39.514Z,5.20
2017-08-25T11:17:08.961Z,3.90
2017-08-25T11:19:37.618Z,3.00
2017-08-25T11:22:05.964Z,4.00
2017-08-25T11:24:34.281Z,4.20
2017-08-25T11:27:02.978Z,3.63
2017-08-25T11:29:31.347Z,3.87
2017-08-25T11:32:00.747Z,3.43
2017-08-25T11:34:29.351Z,3.33
2017-08-25T11:36:57.686Z,4.17
2017-08-25T11:39:27.354Z,2.97
2017-08-25T11:41:57.422Z,3.40
2017-08-25T11:44:25.626Z,3.53
2017-08-25T11:46:54.034Z,3.70
2017-08-25T11:49:23.417Z,3.00
2017-08-25T11:51:51.720Z,2.97
2017-08-25T11:54:20.229Z,2.77
2017-08-25T11:56:48.895Z,2.83
2017-08-25T11:59:18.320Z,3.07
2017-08-25T12:01:46.609Z,2.30
2017-08-25T12:04:15.891Z,2.97
2017-08-25T12:06:45.438Z,2.80
2017-08-25T12:09:14.393Z,2.70
2017-08-25T12:11:42.975Z,3.40
2017-08-25T12:14:11.272Z,3.20
2017-08-25T12:16:39.585Z,2.60
2017-08-25T12:19:08.859Z,2.97
2017-08-25T12:21:38.282Z,3.00
2017-08-25T12:24:06.586Z,3.30
2017-08-25T12:26:35.239Z,3.13
2017-08-25T12:29:03.613Z,3.13
2017-08-25T12:31:32.630Z,2.90
2017-08-25T12:34:02.651Z,2.80
2017-08-25T12:36:30.988Z,3.13
2017-08-25T12:39:00.069Z,2.40
2017-08-25T12:41:28.689Z,2.45
2017-08-25T12:43:57.040Z,2.43
2017-08-25T12:46:26.372Z,2.00
2017-08-25T12:48:54.987Z,2.30
2017-08-25T12:51:25.194Z,2.53
2017-08-25T12:53:54.719Z,2.23
2017-08-25T12:56:23.306Z,2.33
2017-08-25T12:58:51.664Z,2.60
2017-08-25T13:01:20.467Z,3.10
2017-08-25T13:03:49.073Z,2.70
2017-08-25T13:06:17.513Z,2.50
2017-08-25T13:08:46.435Z,2.30
2017-08-25T13:11:15.019Z,1.93
2017-08-25T13:13:43.367Z,2.00
2017-08-25T13:16:12.552Z,2.27
2017-08-25T13:18:43.746Z,2.20
2017-08-25T13:21:12.067Z,2.13
2017-08-25T13:23:40.396Z,1.90
2017-08-25T13:26:09.721Z,2.87
2017-08-25T13:28:38.028Z,1.90
2017-08-25T13:31:06.299Z,2.80
2017-08-25T13:33:34.878Z,2.63
2017-08-25T13:36:04.086Z,2.60
2017-08-25T13:38:32.501Z,1.90
2017-08-25T13:41:01.809Z,1.70
2017-08-25T13:43:30.089Z,2.20
2017-08-25T13:45:59.270Z,2.10
2017-08-25T13:48:27.857Z,2.13
2017-08-25T13:50:56.208Z,2.50
2017-08-25T13:53:24.569Z,2.37
2017-08-25T13:55:53.229Z,2.33
2017-08-25T13:58:23.357Z,2.03
2017-08-25T14:00:53.277Z,1.83
2017-08-25T14:03:22.115Z,1.97
2017-08-25T14:05:50.398Z,2.00
2017-08-25T14:08:19.296Z,2.03
2017-08-25T14:10:48.141Z,1.90
2017-08-25T14:13:17.390Z,2.30
2017-08-25T14:15:46.036Z,2.43
2017-08-25T14:18:14.306Z,2.80
2017-08-25T14:20:42.640Z,2.73
2017-08-25T14:23:11.582Z,2.00
2017-08-25T14:25:40.375Z,1.67
2017-08-25T14:28:09.101Z,2.60
2017-08-25T14:30:37.742Z,2.63
2017-08-25T14:33:06.049Z,1.80
2017-08-25T14:35:35.134Z,1.90
2017-08-25T14:38:03.741Z,2.47
2017-08-25T14:40:32.847Z,2.60
2017-08-25T14:43:01.341Z,2.10
2017-08-25T14:45:30.032Z,2.23
2017-08-25T14:47:59.100Z,2.07
2017-08-25T14:50:27.370Z,2.37
2017-08-25T14:52:55.974Z,2.17
2017-08-25T14:55:24.299Z,2.10
2017-08-25T14:57:52.609Z,2.67
2017-08-25T15:00:21.337Z,1.90
2017-08-25T15:02:49.756Z,2.13
2017-08-25T15:05:18.070Z,2.30
2017-08-25T15:07:46.774Z,2.07
2017-08-25T15:10:15.628Z,2.20
2017-08-25T15:12:44.662Z,2.67
2017-08-25T15:15:13.236Z,1.67
2017-08-25T15:17:41.566Z,2.17
2017-08-25T15:20:09.857Z,2.20
2017-08-25T15:22:38.479Z,2.67
2017-08-25T15:25:06.785Z,2.30
2017-08-25T15:27:35.120Z,2.30
2017-08-25T15:30:05.294Z,2.20
2017-08-25T15:32:34.599Z,2.43
2017-08-25T15:35:02.936Z,2.23
2017-08-25T15:37:31.609Z,2.27
2017-08-25T15:39:59.902Z,2.00
2017-08-25T15:42:28.186Z,2.37
2017-08-25T15:44:56.847Z,2.10
2017-08-25T15:47:25.114Z,2.07
2017-08-25T15:49:54.040Z,2.00
2017-08-25T15:52:23.827Z,2.40
2017-08-25T15:54:53.339Z,2.20
2017-08-25T15:57:21.659Z,2.30
2017-08-25T15:59:50.292Z,2.30
2017-08-25T16:02:18.655Z,2.27
2017-08-25T16:04:46.954Z,3.00
2017-08-25T16:07:15.496Z,2.37
2017-08-25T16:09:43.789Z,2.40
2017-08-25T16:12:12.057Z,2.40
2017-08-25T16:14:40.617Z,2.37
2017-08-25T16:17:08.912Z,2.20
2017-08-25T16:19:37.527Z,2.67
2017-08-25T16:22:06.165Z,2.60
2017-08-25T16:24:36.086Z,3.30
2017-08-25T16:27:04.424Z,2.30
2017-08-25T16:29:34.008Z,2.40
2017-08-25T16:32:02.398Z,2.23
2017-08-25T16:34:30.694Z,2.20
2017-08-25T16:36:59.350Z,3.27
2017-08-25T16:39:27.688Z,2.83
2017-08-25T16:41:55.981Z,2.83
2017-08-25T16:44:24.575Z,3.70
2017-08-25T16:46:54.548Z,2.80
2017-08-25T16:49:22.895Z,2.50
2017-08-25T16:51:51.490Z,2.50
2017-08-25T16:54:20.479Z,2.93
2017-08-25T16:56:49.242Z,2.70
2017-08-25T16:59:17.805Z,2.60
2017-08-25T17:01:46.135Z,3.07
2017-08-25T17:04:14.428Z,2.87
2017-08-25T17:06:43.032Z,2.77
2017-08-25T17:09:11.313Z,2.93
2017-08-25T17:11:39.599Z,2.97
2017-08-25T17:14:08.282Z,2.80
2017-08-25T17:16:37.325Z,3.13
2017-08-25T17:19:05.661Z,2.90
2017-08-25T17:21:34.225Z,3.07
2017-08-25T17:24:02.518Z,3.30
2017-08-25T17:26:30.827Z,3.30
2017-08-25T17:28:59.474Z,3.07
2017-08-25T17:31:27.797Z,2.57
2017-08-25T17:33:56.408Z,2.90
2017-08-25T17:36:25.037Z,3.00
2017-08-25T17:38:53.312Z,2.83
2017-08-25T17:41:21.594Z,3.37
2017-08-25T17:43:50.177Z,2.63
2017-08-25T17:46:18.490Z,3.40
2017-08-25T17:48:46.800Z,3.53
2017-08-25T17:51:15.454Z,3.37
2017-08-25T17:53:44.324Z,3.80
2017-08-25T17:56:12.599Z,3.27
2017-08-25T17:58:41.196Z,3.40
2017-08-25T18:01:09.593Z,3.40
2017-08-25T18:03:37.883Z,3.60
2017-08-25T18:06:06.562Z,3.53
2017-08-25T18:08:34.835Z,3.80
2017-08-25T18:11:03.129Z,3.60
2017-08-25T18:13:32.250Z,3.50
2017-08-25T18:16:01.311Z,4.17
2017-08-25T18:18:29.649Z,4.37
2017-08-25T18:20:58.281Z,4.40
2017-08-25T18:23:26.558Z,5.60
2017-08-25T18:25:54.875Z,5.33
2017-08-25T18:28:23.512Z,4.53
2017-08-25T18:30:51.844Z,4.10
2017-08-25T18:33:20.173Z,4.20
2017-08-25T18:35:48.809Z,3.40
2017-08-25T18:38:17.116Z,5.10
2017-08-25T18:40:45.392Z,5.43
2017-08-25T18:43:13.953Z,4.90
2017-08-25T18:45:42.243Z,5.40
2017-08-25T18:48:10.564Z,4.80
2017-08-25T18:50:39.217Z,5.20
2017-08-25T18:53:07.929Z,5.10
2017-08-25T18:55:37.187Z,5.70
2017-08-25T18:58:05.831Z,6.27
2017-08-25T19:00:35.199Z,7.10
2017-08-25T19:03:03.530Z,5.87
2017-08-25T19:05:32.893Z,7.10
2017-08-25T19:08:01.413Z,5.63
2017-08-25T19:10:29.689Z,6.63
2017-08-25T19:12:58.289Z,6.13
2017-08-25T19:15:26.612Z,6.20
2017-08-25T19:17:54.881Z,5.77
2017-08-25T19:20:23.506Z,5.73
2017-08-25T19:22:51.776Z,6.17
2017-08-25T19:25:20.070Z,6.20
2017-08-25T19:27:48.663Z,6.27
2017-08-25T19:30:17.885Z,5.80
2017-08-25T19:32:46.334Z,6.00
2017-08-25T19:35:15.744Z,7.30
2017-08-25T19:37:44.137Z,6.70
2017-08-25T19:40:12.535Z,6.83
2017-08-25T19:42:41.079Z,6.43
2017-08-25T19:45:09.369Z,6.40
2017-08-25T19:47:37.685Z,6.57
2017-08-25T19:50:06.886Z,7.13
2017-08-25T19:52:35.163Z,6.50
2017-08-25T19:55:04.162Z,6.30
2017-08-25T19:57:33.274Z,7.17
2017-08-25T20:00:01.568Z,7.47
2017-08-25T20:02:29.846Z,7.43
2017-08-25T20:04:58.513Z,6.33
2017-08-25T20:07:26.826Z,7.20
2017-08-25T20:09:55.111Z,7.00
2017-08-25T20:12:23.780Z,6.30
2017-08-25T20:14:52.048Z,7.57
2017-08-25T20:17:20.382Z,7.37
2017-08-25T20:19:49.322Z,8.50
2017-08-25T20:22:18.428Z,8.93
2017-08-25T20:24:46.740Z,8.57
2017-08-25T20:27:15.390Z,11.10
2017-08-25T20:29:43.742Z,12.97
2017-08-25T20:32:12.029Z,10.60
2017-08-25T20:34:40.739Z,12.13
2017-08-25T20:37:09.037Z,12.30
2017-08-25T20:39:37.958Z,11.50
2017-08-25T20:42:06.537Z,12.20
2017-08-25T20:44:34.837Z,12.57
2017-08-25T20:47:03.228Z,12.33
2017-08-25T20:49:32.450Z,12.03
2017-08-25T20:52:00.745Z,10.83
2017-08-25T20:54:29.047Z,10.70
2017-08-25T20:56:57.599Z,11.40
2017-08-25T20:59:25.905Z,12.33
2017-08-25T21:01:54.195Z,12.80
2017-08-25T21:04:22.881Z,11.20
2017-08-25T21:06:52.236Z,10.80
2017-08-25T21:09:20.587Z,11.33
2017-08-25T21:11:49.266Z,11.07
2017-08-25T21:14:17.973Z,11.47
2017-08-25T21:16:46.247Z,12.03
2017-08-25T21:19:18.324Z,11.17
2017-08-25T21:21:47.118Z,12.87
2017-08-25T21:24:15.450Z,13.10
2017-08-25T21:26:44.059Z,11.40
2017-08-25T21:29:13.567Z,10.97
2017-08-25T21:31:41.934Z,11.50
2017-08-25T21:34:10.550Z,11.93
2017-08-25T21:36:39.217Z,13.23
2017-08-25T21:39:07.527Z,12.50
2017-08-25T21:41:36.201Z,14.03
2017-08-25T21:44:04.512Z,10.67
2017-08-25T21:46:32.832Z,12.50
2017-08-25T21:49:01.505Z,11.87
2017-08-25T21:51:29.804Z,11.30
2017-08-25T21:53:58.123Z,10.73
2017-08-25T21:56:26.694Z,11.40
2017-08-25T21:58:55.944Z,12.40
2017-08-25T22:01:24.266Z,13.17
2017-08-25T22:03:52.898Z,14.73
2017-08-25T22:06:21.420Z,13.63
2017-08-25T22:08:52.160Z,14.33
2017-08-25T22:11:20.703Z,13.50
2017-08-25T22:13:49.000Z,14.67
2017-08-25T22:16:19.072Z,14.70
2017-08-25T22:18:47.700Z,15.93
2017-08-25T22:21:16.819Z,19.23
2017-08-25T22:23:45.231Z,22.57
2017-08-25T22:26:14.723Z,26.33
2017-08-25T22:28:44.541Z,23.20
2017-08-25T22:31:12.843Z,18.80
2017-08-25T22:33:41.485Z,19.53
2017-08-25T22:36:10.083Z,18.10
2017-08-25T22:38:38.897Z,19.70
2017-08-25T22:41:07.555Z,23.17
2017-08-25T22:43:35.898Z,20.03
2017-08-25T22:46:04.186Z,25.00
2017-08-25T22:48:32.798Z,21.33
2017-08-25T22:51:01.099Z,22.90
2017-08-25T22:53:29.419Z,20.17
2017-08-25T22:55:58.090Z,19.70
2017-08-25T22:58:26.786Z,19.83
2017-08-25T23:00:55.097Z,22.63
2017-08-25T23:03:23.668Z,24.03
2017-08-25T23:05:53.145Z,19.37
2017-08-25T23:08:21.410Z,24.03
2017-08-25T23:10:50.104Z,22.30
2017-08-25T23:13:18.445Z,19.60
2017-08-25T23:15:47.117Z,21.33
2017-08-25T23:18:15.777Z,22.20
2017-08-25T23:20:48.321Z,23.07
2017-08-25T23:23:16.928Z,22.50
2017-08-25T23:25:46.238Z,21.90
2017-08-25T23:28:15.306Z,23.53
2017-08-25T23:30:44.669Z,22.80
2017-08-25T23:33:13.552Z,21.87
2017-08-25T23:35:42.741Z,23.63
2017-08-25T23:38:11.328Z,22.67
2017-08-25T23:40:39.702Z,23.10
2017-08-25T23:43:08.214Z,24.30
2017-08-25T23:45:37.623Z,24.93
2017-08-25T23:48:06.600Z,23.97
2017-08-25T23:50:35.362Z,23.70
2017-08-25T23:53:03.996Z,25.13
2017-08-25T23:55:32.307Z,23.20
2017-08-25T23:58:00.617Z,22.67
